sensor_id;sensor_type;location;lat;lon;timestamp;P1;durP1;ratioP1;P2;durP2;ratioP2
7156;SDS011;3620;49.862;8.758;2022-10-16T00:00:34;0.80;;;0.80;;
7156;SDS011;3620;49.862;8.758;2022-10-16T00:03:02;0.80;;;0.80;;
7156;SDS011;3620;49.862;8.758;2022-10-16T00:05:29;0.80;;;0.80;;
7156;SDS011;3620;49.862;8.758;2022-10-16T00:07:55;0.80;;;0.80;;
7156;SDS011;3620;49.862;8.758;2022-10-16T00:10:22;0.80;;;0.80;;
7156;SDS011;3620;49.862;8.758;2022-10-16T00:12:49;0.80;;;0.80;;
7156;SDS011;3620;49.862;8.758;2022-10-16T00:15:17;0.80;;;0.80;;
7156;SDS011;3620;49.862;8.758;2022-10-16T00:17:44;0.80;;;0.80;;
7156;SDS011;3620;49.862;8.758;2022-10-16T00:20:10;0.80;;;0.80;;
7156;SDS011;3620;49.862;8.758;2022-10-16T00:22:37;0.80;;;0.80;;
7156;SDS011;3620;49.862;8.758;2022-10-16T00:25:05;0.70;;;0.70;;
7156;SDS011;3620;49.862;8.758;2022-10-16T00:27:32;0.87;;;0.87;;
7156;SDS011;3620;49.862;8.758;2022-10-16T00:29:59;0.80;;;0.80;;
7156;SDS011;3620;49.862;8.758;2022-10-16T00:32:27;0.80;;;0.80;;
7156;SDS011;3620;49.862;8.758;2022-10-16T00:34:54;0.80;;;0.80;;
7156;SDS011;3620;49.862;8.758;2022-10-16T00:37:21;0.80;;;0.80;;
7156;SDS011;3620;49.862;8.758;2022-10-16T00:39:47;0.73;;;0.73;;
7156;SDS011;3620;49.862;8.758;2022-10-16T00:42:14;0.80;;;0.80;;
7156;SDS011;3620;49.862;8.758;2022-10-16T00:44:44;0.87;;;0.87;;
7156;SDS011;3620;49.862;8.758;2022-10-16T00:47:15;0.80;;;0.80;;
7156;SDS011;3620;49.862;8.758;2022-10-16T00:49:47;0.70;;;0.70;;
7156;SDS011;3620;49.862;8.758;2022-10-16T00:52:16;0.80;;;0.80;;
7156;SDS011;3620;49.862;8.758;2022-10-16T00:54:43;0.77;;;0.77;;
7156;SDS011;3620;49.862;8.758;2022-10-16T00:57:13;0.80;;;0.80;;
7156;SDS011;3620;49.862;8.758;2022-10-16T00:59:40;0.80;;;0.80;;
7156;SDS011;3620;49.862;8.758;2022-10-16T01:02:09;0.80;;;0.80;;
7156;SDS011;3620;49.862;8.758;2022-10-16T01:04:37;0.80;;;0.80;;
7156;SDS011;3620;49.862;8.758;2022-10-16T01:07:09;0.70;;;0.70;;
7156;SDS011;3620;49.862;8.758;2022-10-16T01:09:43;0.80;;;0.80;;
7156;SDS011;3620;49.862;8.758;2022-10-16T01:12:20;0.80;;;0.80;;
7156;SDS011;3620;49.862;8.758;2022-10-16T01:14:56;0.70;;;0.70;;
7156;SDS011;3620;49.862;8.758;2022-10-16T01:17:28;0.80;;;0.80;;
7156;SDS011;3620;49.862;8.758;2022-10-16T01:20:03;0.80;;;0.80;;
7156;SDS011;3620;49.862;8.758;2022-10-16T01:22:42;0.73;;;0.73;;
7156;SDS011;3620;49.862;8.758;2022-10-16T01:25:17;0.60;;;0.60;;
7156;SDS011;3620;49.862;8.758;2022-10-16T01:27:50;0.90;;;0.90;;
7156;SDS011;3620;49.862;8.758;2022-10-16T01:30:20;0.80;;;0.80;;
7156;SDS011;3620;49.862;8.758;2022-10-16T01:32:52;0.90;;;0.90;;
7156;SDS011;3620;49.862;8.758;2022-10-16T01:35:25;0.80;;;0.80;;
7156;SDS011;3620;49.862;8.758;2022-10-16T01:37:56;0.80;;;0.80;;
7156;SDS011;3620;49.862;8.758;2022-10-16T01:40:28;0.80;;;0.80;;
7156;SDS011;3620;49.862;8.758;2022-10-16T01:43:02;0.80;;;0.80;;
7156;SDS011;3620;49.862;8.758;2022-10-16T01:45:31;0.70;;;0.70;;
7156;SDS011;3620;49.862;8.758;2022-10-16T01:48:00;0.90;;;0.90;;
7156;SDS011;3620;49.862;8.758;2022-10-16T01:50:30;0.80;;;0.80;;
7156;SDS011;3620;49.862;8.758;2022-10-16T01:52:58;0.80;;;0.80;;
7156;SDS011;3620;49.862;8.758;2022-10-16T01:55:28;0.80;;;0.80;;
7156;SDS011;3620;49.862;8.758;2022-10-16T01:57:58;0.80;;;0.80;;
7156;SDS011;3620;49.862;8.758;2022-10-16T02:00:29;0.80;;;0.80;;
7156;SDS011;3620;49.862;8.758;2022-10-16T02:02:57;0.80;;;0.80;;
7156;SDS011;3620;49.862;8.758;2022-10-16T02:05:29;0.80;;;0.80;;
7156;SDS011;3620;49.862;8.758;2022-10-16T02:08:00;0.80;;;0.80;;
7156;SDS011;3620;49.862;8.758;2022-10-16T02:10:27;0.80;;;0.80;;
7156;SDS011;3620;49.862;8.758;2022-10-16T02:12:56;0.80;;;0.80;;
7156;SDS011;3620;49.862;8.758;2022-10-16T02:15:28;0.80;;;0.80;;
7156;SDS011;3620;49.862;8.758;2022-10-16T02:17:54;0.80;;;0.80;;
7156;SDS011;3620;49.862;8.758;2022-10-16T02:20:22;0.67;;;0.67;;
7156;SDS011;3620;49.862;8.758;2022-10-16T02:22:53;0.80;;;0.80;;
7156;SDS011;3620;49.862;8.758;2022-10-16T02:25:22;0.70;;;0.70;;
7156;SDS011;3620;49.862;8.758;2022-10-16T02:27:53;0.80;;;0.80;;
7156;SDS011;3620;49.862;8.758;2022-10-16T02:30:24;0.80;;;0.80;;
7156;SDS011;3620;49.862;8.758;2022-10-16T02:32:58;0.70;;;0.70;;
7156;SDS011;3620;49.862;8.758;2022-10-16T02:35:28;0.80;;;0.80;;
7156;SDS011;3620;49.862;8.758;2022-10-16T02:37:57;0.80;;;0.80;;
7156;SDS011;3620;49.862;8.758;2022-10-16T02:40:24;0.70;;;0.70;;
7156;SDS011;3620;49.862;8.758;2022-10-16T02:42:53;0.80;;;0.80;;
7156;SDS011;3620;49.862;8.758;2022-10-16T02:45:21;0.80;;;0.80;;
7156;SDS011;3620;49.862;8.758;2022-10-16T02:47:51;0.60;;;0.60;;
7156;SDS011;3620;49.862;8.758;2022-10-16T02:50:18;0.77;;;0.77;;
7156;SDS011;3620;49.862;8.758;2022-10-16T02:52:45;0.80;;;0.80;;
7156;SDS011;3620;49.862;8.758;2022-10-16T02:55:11;0.80;;;0.80;;
7156;SDS011;3620;49.862;8.758;2022-10-16T02:57:38;0.80;;;0.80;;
7156;SDS011;3620;49.862;8.758;2022-10-16T03:00:06;0.80;;;0.80;;
7156;SDS011;3620;49.862;8.758;2022-10-16T03:02:34;0.80;;;0.80;;
7156;SDS011;3620;49.862;8.758;2022-10-16T03:05:02;0.70;;;0.70;;
7156;SDS011;3620;49.862;8.758;2022-10-16T03:07:29;0.80;;;0.80;;
7156;SDS011;3620;49.862;8.758;2022-10-16T03:09:56;0.80;;;0.80;;
7156;SDS011;3620;49.862;8.758;2022-10-16T03:12:25;0.80;;;0.80;;
7156;SDS011;3620;49.862;8.758;2022-10-16T03:14:52;0.80;;;0.80;;
7156;SDS011;3620;49.862;8.758;2022-10-16T03:17:18;0.80;;;0.80;;
7156;SDS011;3620;49.862;8.758;2022-10-16T03:19:45;0.73;;;0.73;;
7156;SDS011;3620;49.862;8.758;2022-10-16T03:22:13;0.80;;;0.80;;
7156;SDS011;3620;49.862;8.758;2022-10-16T03:24:40;0.70;;;0.70;;
7156;SDS011;3620;49.862;8.758;2022-10-16T03:27:06;0.80;;;0.80;;
7156;SDS011;3620;49.862;8.758;2022-10-16T03:29:33;0.80;;;0.80;;
7156;SDS011;3620;49.862;8.758;2022-10-16T03:32:01;0.90;;;0.90;;
7156;SDS011;3620;49.862;8.758;2022-10-16T03:34:29;0.87;;;0.87;;
7156;SDS011;3620;49.862;8.758;2022-10-16T03:36:55;0.80;;;0.80;;
7156;SDS011;3620;49.862;8.758;2022-10-16T03:39:23;0.80;;;0.80;;
7156;SDS011;3620;49.862;8.758;2022-10-16T03:41:50;0.70;;;0.70;;
7156;SDS011;3620;49.862;8.758;2022-10-16T03:44:17;0.80;;;0.80;;
7156;SDS011;3620;49.862;8.758;2022-10-16T03:46:43;0.80;;;0.80;;
7156;SDS011;3620;49.862;8.758;2022-10-16T03:49:10;0.80;;;0.80;;
7156;SDS011;3620;49.862;8.758;2022-10-16T03:51:37;0.80;;;0.80;;
7156;SDS011;3620;49.862;8.758;2022-10-16T03:54:03;0.80;;;0.80;;
7156;SDS011;3620;49.862;8.758;2022-10-16T03:56:31;0.80;;;0.80;;
7156;SDS011;3620;49.862;8.758;2022-10-16T03:58:58;0.80;;;0.80;;
7156;SDS011;3620;49.862;8.758;2022-10-16T04:01:25;0.80;;;0.80;;
7156;SDS011;3620;49.862;8.758;2022-10-16T04:03:51;0.70;;;0.70;;
7156;SDS011;3620;49.862;8.758;2022-10-16T04:06:18;0.80;;;0.80;;
7156;SDS011;3620;49.862;8.758;2022-10-16T04:08:45;0.80;;;0.80;;
7156;SDS011;3620;49.862;8.758;2022-10-16T04:11:11;0.73;;;0.73;;
7156;SDS011;3620;49.862;8.758;2022-10-16T04:13:39;0.73;;;0.73;;
7156;SDS011;3620;49.862;8.758;2022-10-16T04:16:06;0.80;;;0.80;;
7156;SDS011;3620;49.862;8.758;2022-10-16T04:18:33;0.80;;;0.80;;
7156;SDS011;3620;49.862;8.758;2022-10-16T04:21:02;0.80;;;0.80;;
7156;SDS011;3620;49.862;8.758;2022-10-16T04:23:29;0.70;;;0.70;;
7156;SDS011;3620;49.862;8.758;2022-10-16T04:25:55;0.80;;;0.80;;
7156;SDS011;3620;49.862;8.758;2022-10-16T04:28:22;0.80;;;0.80;;
7156;SDS011;3620;49.862;8.758;2022-10-16T04:30:50;0.80;;;0.80;;
7156;SDS011;3620;49.862;8.758;2022-10-16T04:33:17;0.90;;;0.90;;
7156;SDS011;3620;49.862;8.758;2022-10-16T04:35:43;0.80;;;0.80;;
7156;SDS011;3620;49.862;8.758;2022-10-16T04:38:10;0.80;;;0.80;;
7156;SDS011;3620;49.862;8.758;2022-10-16T04:40:37;0.80;;;0.80;;
7156;SDS011;3620;49.862;8.758;2022-10-16T04:43:04;0.80;;;0.80;;
7156;SDS011;3620;49.862;8.758;2022-10-16T04:45:31;0.80;;;0.80;;
7156;SDS011;3620;49.862;8.758;2022-10-16T04:47:59;0.70;;;0.70;;
7156;SDS011;3620;49.862;8.758;2022-10-16T04:50:26;0.70;;;0.70;;
7156;SDS011;3620;49.862;8.758;2022-10-16T04:52:53;0.80;;;0.80;;
7156;SDS011;3620;49.862;8.758;2022-10-16T04:55:19;0.80;;;0.80;;
7156;SDS011;3620;49.862;8.758;2022-10-16T04:57:46;0.70;;;0.70;;
7156;SDS011;3620;49.862;8.758;2022-10-16T05:00:13;0.80;;;0.80;;
7156;SDS011;3620;49.862;8.758;2022-10-16T05:02:39;0.80;;;0.80;;
7156;SDS011;3620;49.862;8.758;2022-10-16T05:05:08;0.80;;;0.80;;
7156;SDS011;3620;49.862;8.758;2022-10-16T05:07:35;0.80;;;0.80;;
7156;SDS011;3620;49.862;8.758;2022-10-16T05:10:01;0.77;;;0.77;;
7156;SDS011;3620;49.862;8.758;2022-10-16T05:12:28;0.50;;;0.50;;
7156;SDS011;3620;49.862;8.758;2022-10-16T05:14:55;0.80;;;0.80;;
7156;SDS011;3620;49.862;8.758;2022-10-16T05:17:23;0.80;;;0.80;;
7156;SDS011;3620;49.862;8.758;2022-10-16T05:19:50;0.80;;;0.80;;
7156;SDS011;3620;49.862;8.758;2022-10-16T05:22:18;0.80;;;0.80;;
7156;SDS011;3620;49.862;8.758;2022-10-16T05:24:45;0.80;;;0.80;;
7156;SDS011;3620;49.862;8.758;2022-10-16T05:27:12;0.80;;;0.80;;
7156;SDS011;3620;49.862;8.758;2022-10-16T05:29:44;0.70;;;0.70;;
7156;SDS011;3620;49.862;8.758;2022-10-16T05:32:11;0.80;;;0.80;;
7156;SDS011;3620;49.862;8.758;2022-10-16T05:34:38;0.80;;;0.80;;
7156;SDS011;3620;49.862;8.758;2022-10-16T05:37:05;0.80;;;0.80;;
7156;SDS011;3620;49.862;8.758;2022-10-16T05:39:33;0.80;;;0.80;;
7156;SDS011;3620;49.862;8.758;2022-10-16T05:41:59;0.77;;;0.77;;
7156;SDS011;3620;49.862;8.758;2022-10-16T05:44:26;0.70;;;0.70;;
7156;SDS011;3620;49.862;8.758;2022-10-16T05:46:53;0.80;;;0.80;;
7156;SDS011;3620;49.862;8.758;2022-10-16T05:49:20;0.80;;;0.80;;
7156;SDS011;3620;49.862;8.758;2022-10-16T05:51:46;0.80;;;0.80;;
7156;SDS011;3620;49.862;8.758;2022-10-16T05:54:13;0.80;;;0.80;;
7156;SDS011;3620;49.862;8.758;2022-10-16T05:56:41;0.80;;;0.80;;
7156;SDS011;3620;49.862;8.758;2022-10-16T05:59:08;0.80;;;0.80;;
7156;SDS011;3620;49.862;8.758;2022-10-16T06:01:35;0.80;;;0.80;;
7156;SDS011;3620;49.862;8.758;2022-10-16T06:04:01;0.80;;;0.80;;
7156;SDS011;3620;49.862;8.758;2022-10-16T06:06:29;0.80;;;0.80;;
7156;SDS011;3620;49.862;8.758;2022-10-16T06:08:56;0.80;;;0.80;;
7156;SDS011;3620;49.862;8.758;2022-10-16T06:11:25;0.80;;;0.80;;
7156;SDS011;3620;49.862;8.758;2022-10-16T06:13:55;0.50;;;0.50;;
7156;SDS011;3620;49.862;8.758;2022-10-16T06:16:23;0.70;;;0.70;;
7156;SDS011;3620;49.862;8.758;2022-10-16T06:18:51;0.80;;;0.80;;
7156;SDS011;3620;49.862;8.758;2022-10-16T06:21:19;0.80;;;0.80;;
7156;SDS011;3620;49.862;8.758;2022-10-16T06:23:49;0.80;;;0.80;;
7156;SDS011;3620;49.862;8.758;2022-10-16T06:26:17;0.70;;;0.70;;
7156;SDS011;3620;49.862;8.758;2022-10-16T06:28:45;0.80;;;0.80;;
7156;SDS011;3620;49.862;8.758;2022-10-16T06:31:13;0.70;;;0.70;;
7156;SDS011;3620;49.862;8.758;2022-10-16T06:33:41;0.80;;;0.80;;
7156;SDS011;3620;49.862;8.758;2022-10-16T06:36:09;0.80;;;0.80;;
7156;SDS011;3620;49.862;8.758;2022-10-16T06:38:38;0.80;;;0.80;;
7156;SDS011;3620;49.862;8.758;2022-10-16T06:41:05;0.50;;;0.50;;
7156;SDS011;3620;49.862;8.758;2022-10-16T06:43:33;0.80;;;0.80;;
7156;SDS011;3620;49.862;8.758;2022-10-16T06:46:00;0.80;;;0.80;;
7156;SDS011;3620;49.862;8.758;2022-10-16T06:48:29;0.80;;;0.80;;
7156;SDS011;3620;49.862;8.758;2022-10-16T06:50:57;0.80;;;0.80;;
7156;SDS011;3620;49.862;8.758;2022-10-16T06:53:24;0.70;;;0.70;;
7156;SDS011;3620;49.862;8.758;2022-10-16T06:55:52;0.80;;;0.80;;
7156;SDS011;3620;49.862;8.758;2022-10-16T06:58:19;0.80;;;0.80;;
7156;SDS011;3620;49.862;8.758;2022-10-16T07:00:46;0.80;;;0.80;;
7156;SDS011;3620;49.862;8.758;2022-10-16T07:03:12;0.80;;;0.80;;
7156;SDS011;3620;49.862;8.758;2022-10-16T07:05:41;0.80;;;0.80;;
7156;SDS011;3620;49.862;8.758;2022-10-16T07:08:08;0.80;;;0.80;;
7156;SDS011;3620;49.862;8.758;2022-10-16T07:10:35;0.80;;;0.80;;
7156;SDS011;3620;49.862;8.758;2022-10-16T07:13:02;0.90;;;0.90;;
7156;SDS011;3620;49.862;8.758;2022-10-16T07:15:29;0.70;;;0.70;;
7156;SDS011;3620;49.862;8.758;2022-10-16T07:17:55;0.80;;;0.80;;
7156;SDS011;3620;49.862;8.758;2022-10-16T07:20:22;0.80;;;0.80;;
7156;SDS011;3620;49.862;8.758;2022-10-16T07:22:50;0.80;;;0.80;;
7156;SDS011;3620;49.862;8.758;2022-10-16T07:25:17;0.80;;;0.80;;
7156;SDS011;3620;49.862;8.758;2022-10-16T07:27:44;0.80;;;0.80;;
7156;SDS011;3620;49.862;8.758;2022-10-16T07:30:11;0.80;;;0.80;;
7156;SDS011;3620;49.862;8.758;2022-10-16T07:32:37;0.70;;;0.70;;
7156;SDS011;3620;49.862;8.758;2022-10-16T07:35:04;0.90;;;0.90;;
7156;SDS011;3620;49.862;8.758;2022-10-16T07:37:32;0.70;;;0.70;;
7156;SDS011;3620;49.862;8.758;2022-10-16T07:40:00;0.80;;;0.80;;
7156;SDS011;3620;49.862;8.758;2022-10-16T07:42:27;0.80;;;0.80;;
7156;SDS011;3620;49.862;8.758;2022-10-16T07:44:53;0.80;;;0.80;;
7156;SDS011;3620;49.862;8.758;2022-10-16T07:47:20;0.70;;;0.70;;
7156;SDS011;3620;49.862;8.758;2022-10-16T07:49:47;0.80;;;0.80;;
7156;SDS011;3620;49.862;8.758;2022-10-16T07:52:13;0.80;;;0.80;;
7156;SDS011;3620;49.862;8.758;2022-10-16T07:54:40;0.70;;;0.70;;
7156;SDS011;3620;49.862;8.758;2022-10-16T07:57:08;0.70;;;0.70;;
7156;SDS011;3620;49.862;8.758;2022-10-16T07:59:34;0.80;;;0.80;;
7156;SDS011;3620;49.862;8.758;2022-10-16T08:02:01;0.80;;;0.80;;
7156;SDS011;3620;49.862;8.758;2022-10-16T08:04:28;0.70;;;0.70;;
7156;SDS011;3620;49.862;8.758;2022-10-16T08:06:54;0.80;;;0.80;;
7156;SDS011;3620;49.862;8.758;2022-10-16T08:09:21;0.80;;;0.80;;
7156;SDS011;3620;49.862;8.758;2022-10-16T08:11:48;0.80;;;0.80;;
7156;SDS011;3620;49.862;8.758;2022-10-16T08:14:16;0.80;;;0.80;;
7156;SDS011;3620;49.862;8.758;2022-10-16T08:16:43;0.70;;;0.70;;
7156;SDS011;3620;49.862;8.758;2022-10-16T08:19:09;0.80;;;0.80;;
7156;SDS011;3620;49.862;8.758;2022-10-16T08:21:36;0.80;;;0.80;;
7156;SDS011;3620;49.862;8.758;2022-10-16T08:24:03;0.70;;;0.70;;
7156;SDS011;3620;49.862;8.758;2022-10-16T08:26:29;0.77;;;0.77;;
7156;SDS011;3620;49.862;8.758;2022-10-16T08:28:56;0.70;;;0.70;;
7156;SDS011;3620;49.862;8.758;2022-10-16T08:31:24;0.80;;;0.80;;
7156;SDS011;3620;49.862;8.758;2022-10-16T08:33:52;0.70;;;0.70;;
7156;SDS011;3620;49.862;8.758;2022-10-16T08:36:19;0.70;;;0.70;;
7156;SDS011;3620;49.862;8.758;2022-10-16T08:38:47;0.80;;;0.80;;
7156;SDS011;3620;49.862;8.758;2022-10-16T08:41:19;0.70;;;0.70;;
7156;SDS011;3620;49.862;8.758;2022-10-16T08:44:03;0.70;;;0.70;;
7156;SDS011;3620;49.862;8.758;2022-10-16T08:46:45;0.70;;;0.70;;
7156;SDS011;3620;49.862;8.758;2022-10-16T08:49:19;0.80;;;0.80;;
7156;SDS011;3620;49.862;8.758;2022-10-16T08:51:46;0.70;;;0.70;;
7156;SDS011;3620;49.862;8.758;2022-10-16T08:54:18;0.70;;;0.70;;
7156;SDS011;3620;49.862;8.758;2022-10-16T08:56:53;0.80;;;0.80;;
7156;SDS011;3620;49.862;8.758;2022-10-16T08:59:21;0.70;;;0.70;;
7156;SDS011;3620;49.862;8.758;2022-10-16T09:01:50;0.73;;;0.73;;
7156;SDS011;3620;49.862;8.758;2022-10-16T09:07:20;0.73;;;0.73;;
7156;SDS011;3620;49.862;8.758;2022-10-16T09:10:04;0.80;;;0.80;;
7156;SDS011;3620;49.862;8.758;2022-10-16T09:12:43;0.80;;;0.80;;
7156;SDS011;3620;49.862;8.758;2022-10-16T09:15:21;0.80;;;0.80;;
7156;SDS011;3620;49.862;8.758;2022-10-16T09:17:58;0.80;;;0.80;;
7156;SDS011;3620;49.862;8.758;2022-10-16T09:20:38;0.80;;;0.80;;
7156;SDS011;3620;49.862;8.758;2022-10-16T09:23:15;0.80;;;0.80;;
7156;SDS011;3620;49.862;8.758;2022-10-16T09:25:44;0.80;;;0.80;;
7156;SDS011;3620;49.862;8.758;2022-10-16T09:28:14;0.80;;;0.80;;
7156;SDS011;3620;49.862;8.758;2022-10-16T09:30:41;0.73;;;0.73;;
7156;SDS011;3620;49.862;8.758;2022-10-16T09:33:10;0.70;;;0.70;;
7156;SDS011;3620;49.862;8.758;2022-10-16T09:35:39;0.70;;;0.70;;
7156;SDS011;3620;49.862;8.758;2022-10-16T09:38:08;0.80;;;0.80;;
7156;SDS011;3620;49.862;8.758;2022-10-16T09:40:35;0.77;;;0.77;;
7156;SDS011;3620;49.862;8.758;2022-10-16T09:43:10;0.70;;;0.70;;
7156;SDS011;3620;49.862;8.758;2022-10-16T09:45:52;0.70;;;0.70;;
7156;SDS011;3620;49.862;8.758;2022-10-16T09:48:22;0.70;;;0.70;;
7156;SDS011;3620;49.862;8.758;2022-10-16T09:50:58;0.70;;;0.70;;
7156;SDS011;3620;49.862;8.758;2022-10-16T09:53:26;0.70;;;0.70;;
7156;SDS011;3620;49.862;8.758;2022-10-16T09:56:05;0.70;;;0.70;;
7156;SDS011;3620;49.862;8.758;2022-10-16T09:58:32;0.70;;;0.70;;
7156;SDS011;3620;49.862;8.758;2022-10-16T10:00:59;0.63;;;0.63;;
7156;SDS011;3620;49.862;8.758;2022-10-16T10:03:35;0.70;;;0.70;;
7156;SDS011;3620;49.862;8.758;2022-10-16T10:06:06;0.70;;;0.70;;
7156;SDS011;3620;49.862;8.758;2022-10-16T10:08:52;0.70;;;0.70;;
7156;SDS011;3620;49.862;8.758;2022-10-16T10:11:47;0.70;;;0.70;;
7156;SDS011;3620;49.862;8.758;2022-10-16T10:17:07;0.80;;;0.80;;
7156;SDS011;3620;49.862;8.758;2022-10-16T10:19:39;0.80;;;0.80;;
7156;SDS011;3620;49.862;8.758;2022-10-16T10:22:15;0.70;;;0.70;;
7156;SDS011;3620;49.862;8.758;2022-10-16T10:28:06;0.60;;;0.60;;
7156;SDS011;3620;49.862;8.758;2022-10-16T10:30:55;0.70;;;0.70;;
7156;SDS011;3620;49.862;8.758;2022-10-16T10:33:28;0.80;;;0.80;;
7156;SDS011;3620;49.862;8.758;2022-10-16T10:36:11;0.80;;;0.80;;
7156;SDS011;3620;49.862;8.758;2022-10-16T10:38:49;0.70;;;0.70;;
7156;SDS011;3620;49.862;8.758;2022-10-16T10:41:24;0.70;;;0.70;;
7156;SDS011;3620;49.862;8.758;2022-10-16T10:44:11;0.60;;;0.60;;
7156;SDS011;3620;49.862;8.758;2022-10-16T10:46:48;0.70;;;0.70;;
7156;SDS011;3620;49.862;8.758;2022-10-16T10:49:25;0.70;;;0.70;;
7156;SDS011;3620;49.862;8.758;2022-10-16T10:52:10;0.70;;;0.70;;
7156;SDS011;3620;49.862;8.758;2022-10-16T10:54:45;0.60;;;0.60;;
7156;SDS011;3620;49.862;8.758;2022-10-16T10:57:23;0.80;;;0.80;;
7156;SDS011;3620;49.862;8.758;2022-10-16T10:59:57;0.70;;;0.70;;
7156;SDS011;3620;49.862;8.758;2022-10-16T11:02:32;0.70;;;0.70;;
7156;SDS011;3620;49.862;8.758;2022-10-16T11:07:58;0.80;;;0.80;;
7156;SDS011;3620;49.862;8.758;2022-10-16T11:10:28;0.70;;;0.70;;
7156;SDS011;3620;49.862;8.758;2022-10-16T11:13:06;0.70;;;0.70;;
7156;SDS011;3620;49.862;8.758;2022-10-16T11:15:43;0.70;;;0.70;;
7156;SDS011;3620;49.862;8.758;2022-10-16T11:18:16;0.77;;;0.77;;
7156;SDS011;3620;49.862;8.758;2022-10-16T11:20:49;0.80;;;0.80;;
7156;SDS011;3620;49.862;8.758;2022-10-16T11:23:23;0.80;;;0.80;;
7156;SDS011;3620;49.862;8.758;2022-10-16T11:25:53;0.70;;;0.70;;
7156;SDS011;3620;49.862;8.758;2022-10-16T11:28:23;0.67;;;0.67;;
7156;SDS011;3620;49.862;8.758;2022-10-16T11:30:57;0.70;;;0.70;;
7156;SDS011;3620;49.862;8.758;2022-10-16T11:33:29;0.70;;;0.70;;
7156;SDS011;3620;49.862;8.758;2022-10-16T11:36:03;0.63;;;0.63;;
7156;SDS011;3620;49.862;8.758;2022-10-16T11:38:37;0.70;;;0.70;;
7156;SDS011;3620;49.862;8.758;2022-10-16T11:41:11;0.60;;;0.60;;
7156;SDS011;3620;49.862;8.758;2022-10-16T11:43:48;0.70;;;0.70;;
7156;SDS011;3620;49.862;8.758;2022-10-16T11:46:23;0.70;;;0.70;;
7156;SDS011;3620;49.862;8.758;2022-10-16T11:48:54;0.60;;;0.60;;
7156;SDS011;3620;49.862;8.758;2022-10-16T11:51:29;0.60;;;0.60;;
7156;SDS011;3620;49.862;8.758;2022-10-16T11:54:04;0.70;;;0.70;;
7156;SDS011;3620;49.862;8.758;2022-10-16T11:56:40;0.63;;;0.63;;
7156;SDS011;3620;49.862;8.758;2022-10-16T11:59:13;0.60;;;0.60;;
7156;SDS011;3620;49.862;8.758;2022-10-16T12:01:46;0.60;;;0.60;;
7156;SDS011;3620;49.862;8.758;2022-10-16T12:04:20;0.60;;;0.60;;
7156;SDS011;3620;49.862;8.758;2022-10-16T12:06:52;0.60;;;0.60;;
7156;SDS011;3620;49.862;8.758;2022-10-16T12:09:27;0.60;;;0.60;;
7156;SDS011;3620;49.862;8.758;2022-10-16T12:11:56;0.60;;;0.60;;
7156;SDS011;3620;49.862;8.758;2022-10-16T12:14:37;0.60;;;0.60;;
7156;SDS011;3620;49.862;8.758;2022-10-16T12:19:56;0.60;;;0.60;;
7156;SDS011;3620;49.862;8.758;2022-10-16T12:22:24;0.60;;;0.60;;
7156;SDS011;3620;49.862;8.758;2022-10-16T12:24:57;0.60;;;0.60;;
7156;SDS011;3620;49.862;8.758;2022-10-16T12:27:27;0.60;;;0.60;;
7156;SDS011;3620;49.862;8.758;2022-10-16T12:29:56;0.60;;;0.60;;
7156;SDS011;3620;49.862;8.758;2022-10-16T12:32:27;0.60;;;0.60;;
7156;SDS011;3620;49.862;8.758;2022-10-16T12:34:56;0.60;;;0.60;;
7156;SDS011;3620;49.862;8.758;2022-10-16T12:37:27;0.50;;;0.50;;
7156;SDS011;3620;49.862;8.758;2022-10-16T12:39:59;0.60;;;0.60;;
7156;SDS011;3620;49.862;8.758;2022-10-16T12:42:37;0.60;;;0.60;;
7156;SDS011;3620;49.862;8.758;2022-10-16T12:45:13;0.67;;;0.67;;
7156;SDS011;3620;49.862;8.758;2022-10-16T12:47:52;0.60;;;0.60;;
7156;SDS011;3620;49.862;8.758;2022-10-16T12:50:25;0.60;;;0.60;;
7156;SDS011;3620;49.862;8.758;2022-10-16T12:52:55;0.50;;;0.50;;
7156;SDS011;3620;49.862;8.758;2022-10-16T12:55:24;0.60;;;0.60;;
7156;SDS011;3620;49.862;8.758;2022-10-16T13:01:01;0.50;;;0.50;;
7156;SDS011;3620;49.862;8.758;2022-10-16T13:03:48;0.60;;;0.60;;
7156;SDS011;3620;49.862;8.758;2022-10-16T13:06:38;0.60;;;0.60;;
7156;SDS011;3620;49.862;8.758;2022-10-16T13:09:17;0.60;;;0.60;;
7156;SDS011;3620;49.862;8.758;2022-10-16T13:11:58;0.60;;;0.60;;
7156;SDS011;3620;49.862;8.758;2022-10-16T13:17:35;0.70;;;0.70;;
7156;SDS011;3620;49.862;8.758;2022-10-16T13:20:11;0.60;;;0.60;;
7156;SDS011;3620;49.862;8.758;2022-10-16T13:22:45;0.60;;;0.60;;
7156;SDS011;3620;49.862;8.758;2022-10-16T13:25:23;0.60;;;0.60;;
7156;SDS011;3620;49.862;8.758;2022-10-16T13:28:02;0.50;;;0.50;;
7156;SDS011;3620;49.862;8.758;2022-10-16T13:30:32;0.60;;;0.60;;
7156;SDS011;3620;49.862;8.758;2022-10-16T13:33:06;0.60;;;0.60;;
7156;SDS011;3620;49.862;8.758;2022-10-16T13:35:46;0.60;;;0.60;;
7156;SDS011;3620;49.862;8.758;2022-10-16T13:38:15;0.60;;;0.60;;
7156;SDS011;3620;49.862;8.758;2022-10-16T13:40:51;0.60;;;0.60;;
7156;SDS011;3620;49.862;8.758;2022-10-16T13:43:23;0.60;;;0.60;;
7156;SDS011;3620;49.862;8.758;2022-10-16T13:45:53;0.60;;;0.60;;
7156;SDS011;3620;49.862;8.758;2022-10-16T13:48:24;0.60;;;0.60;;
7156;SDS011;3620;49.862;8.758;2022-10-16T13:50:58;0.60;;;0.60;;
7156;SDS011;3620;49.862;8.758;2022-10-16T13:53:25;0.70;;;0.70;;
7156;SDS011;3620;49.862;8.758;2022-10-16T13:55:52;0.70;;;0.70;;
7156;SDS011;3620;49.862;8.758;2022-10-16T13:58:19;0.67;;;0.67;;
7156;SDS011;3620;49.862;8.758;2022-10-16T14:00:54;0.70;;;0.70;;
7156;SDS011;3620;49.862;8.758;2022-10-16T14:03:23;0.60;;;0.60;;
7156;SDS011;3620;49.862;8.758;2022-10-16T14:05:51;0.60;;;0.60;;
7156;SDS011;3620;49.862;8.758;2022-10-16T14:08:19;0.60;;;0.60;;
7156;SDS011;3620;49.862;8.758;2022-10-16T14:10:47;0.60;;;0.60;;
7156;SDS011;3620;49.862;8.758;2022-10-16T14:13:17;0.60;;;0.60;;
7156;SDS011;3620;49.862;8.758;2022-10-16T14:15:46;0.60;;;0.60;;
7156;SDS011;3620;49.862;8.758;2022-10-16T14:18:19;0.60;;;0.60;;
7156;SDS011;3620;49.862;8.758;2022-10-16T14:20:47;0.70;;;0.70;;
7156;SDS011;3620;49.862;8.758;2022-10-16T14:23:19;0.60;;;0.60;;
7156;SDS011;3620;49.862;8.758;2022-10-16T14:25:48;0.70;;;0.70;;
7156;SDS011;3620;49.862;8.758;2022-10-16T14:28:15;0.60;;;0.60;;
7156;SDS011;3620;49.862;8.758;2022-10-16T14:30:50;0.63;;;0.63;;
7156;SDS011;3620;49.862;8.758;2022-10-16T14:33:21;0.60;;;0.60;;
7156;SDS011;3620;49.862;8.758;2022-10-16T14:36:00;0.60;;;0.60;;
7156;SDS011;3620;49.862;8.758;2022-10-16T14:38:29;0.63;;;0.63;;
7156;SDS011;3620;49.862;8.758;2022-10-16T14:40:56;0.60;;;0.60;;
7156;SDS011;3620;49.862;8.758;2022-10-16T14:43:26;0.60;;;0.60;;
7156;SDS011;3620;49.862;8.758;2022-10-16T14:45:58;0.60;;;0.60;;
7156;SDS011;3620;49.862;8.758;2022-10-16T14:48:27;0.60;;;0.60;;
7156;SDS011;3620;49.862;8.758;2022-10-16T14:50:54;0.60;;;0.60;;
7156;SDS011;3620;49.862;8.758;2022-10-16T14:53:21;0.63;;;0.63;;
7156;SDS011;3620;49.862;8.758;2022-10-16T14:55:48;0.60;;;0.60;;
7156;SDS011;3620;49.862;8.758;2022-10-16T14:58:15;0.60;;;0.60;;
7156;SDS011;3620;49.862;8.758;2022-10-16T15:00:44;0.70;;;0.70;;
7156;SDS011;3620;49.862;8.758;2022-10-16T15:03:11;0.60;;;0.60;;
7156;SDS011;3620;49.862;8.758;2022-10-16T15:05:39;0.70;;;0.70;;
7156;SDS011;3620;49.862;8.758;2022-10-16T15:08:13;0.60;;;0.60;;
7156;SDS011;3620;49.862;8.758;2022-10-16T15:10:58;0.60;;;0.60;;
7156;SDS011;3620;49.862;8.758;2022-10-16T15:13:39;0.60;;;0.60;;
7156;SDS011;3620;49.862;8.758;2022-10-16T15:16:07;0.60;;;0.60;;
7156;SDS011;3620;49.862;8.758;2022-10-16T15:18:36;0.60;;;0.60;;
7156;SDS011;3620;49.862;8.758;2022-10-16T15:21:05;0.60;;;0.60;;
7156;SDS011;3620;49.862;8.758;2022-10-16T15:23:32;0.60;;;0.60;;
7156;SDS011;3620;49.862;8.758;2022-10-16T15:26:02;0.60;;;0.60;;
7156;SDS011;3620;49.862;8.758;2022-10-16T15:28:31;0.60;;;0.60;;
7156;SDS011;3620;49.862;8.758;2022-10-16T15:30:57;0.60;;;0.60;;
7156;SDS011;3620;49.862;8.758;2022-10-16T15:33:24;0.60;;;0.60;;
7156;SDS011;3620;49.862;8.758;2022-10-16T15:35:58;0.60;;;0.60;;
7156;SDS011;3620;49.862;8.758;2022-10-16T15:38:26;0.60;;;0.60;;
7156;SDS011;3620;49.862;8.758;2022-10-16T15:40:54;0.60;;;0.60;;
7156;SDS011;3620;49.862;8.758;2022-10-16T15:43:20;0.60;;;0.60;;
7156;SDS011;3620;49.862;8.758;2022-10-16T15:45:52;0.60;;;0.60;;
7156;SDS011;3620;49.862;8.758;2022-10-16T15:48:25;0.60;;;0.60;;
7156;SDS011;3620;49.862;8.758;2022-10-16T15:50:52;0.60;;;0.60;;
7156;SDS011;3620;49.862;8.758;2022-10-16T15:53:18;0.70;;;0.70;;